Time;durP1;ratioP1;P1;durP2;ratioP2;P2;SDS_P1;SDS_P2;PMS_P1;PMS_P2;Temp;Humidity;BMP_temperature;BMP_pressure;BME280_temperature;BME280_humidity;BME280_pressure;Samples;Min_cycle;Max_cycle;Signal;HPM_P1;HPM_P2
2024/01/19 00:00:07;;;;;;;4.30;2.20;;;;;;;;;;5093450;28;20031;-33
2024/01/19 00:02:32;;;;;;;11.82;2.85;;;;;;;;;;5093708;28;20482;-32
2024/01/19 00:04:58;;;;;;;5.82;2.35;;;;;;;;;;5093498;28;20016;-33
2024/01/19 00:07:23;;;;;;;13.37;2.70;;;;;;;;;;5093487;28;20040;-32
2024/01/19 00:09:48;;;;;;;6.17;2.60;;;;;;;;;;5094084;28;20246;-33
2024/01/19 00:12:13;;;;;;;7.03;2.53;;;;;;;;;;5093701;28;20317;-33
2024/01/19 00:14:38;;;;;;;8.10;2.70;;;;;;;;;;5094007;28;20020;-33
2024/01/19 00:17:04;;;;;;;5.07;2.20;;;;;;;;;;5093606;28;20610;-33
2024/01/19 00:19:29;;;;;;;8.30;2.70;;;;;;;;;;5093880;28;20024;-32
2024/01/19 00:21:54;;;;;;;7.28;2.25;;;;;;;;;;5093269;28;20455;-32
2024/01/19 00:24:19;;;;;;;5.47;2.23;;;;;;;;;;5093922;28;20030;-33
2024/01/19 00:26:47;;;;;;;7.35;2.38;;;;;;;;;;5093328;28;20313;-33
2024/01/19 00:29:12;;;;;;;6.97;2.20;;;;;;;;;;5093175;28;20035;-33
2024/01/19 00:31:37;;;;;;;12.15;2.40;;;;;;;;;;5093307;28;20024;-32
2024/01/19 00:34:02;;;;;;;14.20;2.00;;;;;;;;;;5093307;28;20483;-32
2024/01/19 00:36:28;;;;;;;7.85;2.10;;;;;;;;;;5093166;28;20312;-33
2024/01/19 00:38:53;;;;;;;6.40;2.38;;;;;;;;;;5093460;28;20459;-33
2024/01/19 00:41:18;;;;;;;9.45;3.63;;;;;;;;;;5093635;28;20028;-33
2024/01/19 00:43:43;;;;;;;4.47;2.10;;;;;;;;;;5093367;28;20016;-32
2024/01/19 00:46:09;;;;;;;7.07;2.40;;;;;;;;;;5092992;28;20016;-33
2024/01/19 00:48:34;;;;;;;8.00;2.25;;;;;;;;;;5093073;28;20023;-33
2024/01/19 00:50:59;;;;;;;5.20;2.30;;;;;;;;;;5093655;28;20107;-33
2024/01/19 00:53:24;;;;;;;9.68;2.50;;;;;;;;;;5093035;28;20254;-32
2024/01/19 00:55:49;;;;;;;8.43;2.20;;;;;;;;;;5093358;28;20035;-32
2024/01/19 00:58:15;;;;;;;4.47;1.80;;;;;;;;;;5092931;28;20016;-31
2024/01/19 01:00:40;;;;;;;4.07;1.90;;;;;;;;;;5093505;28;20020;-33
2024/01/19 01:03:06;;;;;;;7.32;2.30;;;;;;;;;;5092928;28;20099;-32
2024/01/19 01:05:31;;;;;;;3.88;2.10;;;;;;;;;;5093352;28;20017;-31
2024/01/19 01:07:56;;;;;;;5.63;1.95;;;;;;;;;;5092863;28;20375;-32
2024/01/19 01:10:21;;;;;;;6.38;1.75;;;;;;;;;;5096535;28;20016;-31
2024/01/19 01:12:46;;;;;;;6.20;2.20;;;;;;;;;;5096431;28;20462;-31
2024/01/19 01:15:12;;;;;;;8.85;1.90;;;;;;;;;;5096578;28;20077;-32
2024/01/19 01:17:37;;;;;;;8.55;2.00;;;;;;;;;;5097109;28;20103;-32
2024/01/19 01:20:03;;;;;;;5.00;1.80;;;;;;;;;;5097544;28;20035;-32
2024/01/19 01:22:28;;;;;;;4.63;1.90;;;;;;;;;;5096636;28;20721;-35
2024/01/19 01:24:53;;;;;;;4.53;1.93;;;;;;;;;;5096413;28;20324;-35
2024/01/19 01:27:18;;;;;;;5.35;1.77;;;;;;;;;;5096619;28;20330;-36
2024/01/19 01:29:43;;;;;;;5.20;1.60;;;;;;;;;;5096823;28;20020;-36
2024/01/19 01:32:09;;;;;;;7.38;2.03;;;;;;;;;;5096255;28;20717;-37
2024/01/19 01:34:34;;;;;;;6.65;1.48;;;;;;;;;;5096199;28;20546;-36
2024/01/19 01:37:00;;;;;;;6.20;1.77;;;;;;;;;;5096706;28;20039;-35
2024/01/19 01:39:25;;;;;;;7.65;1.65;;;;;;;;;;5096310;28;20753;-36
2024/01/19 01:41:50;;;;;;;4.88;1.60;;;;;;;;;;5095923;28;20360;-36
2024/01/19 01:44:16;;;;;;;5.75;1.90;;;;;;;;;;5096537;28;20066;-35
2024/01/19 01:46:41;;;;;;;6.57;1.88;;;;;;;;;;5095981;28;20020;-36
2024/01/19 01:49:06;;;;;;;4.97;1.57;;;;;;;;;;5095989;28;20039;-36
2024/01/19 01:51:33;;;;;;;4.03;1.50;;;;;;;;;;5096059;28;20289;-36
2024/01/19 01:53:58;;;;;;;5.85;2.33;;;;;;;;;;5096134;28;20204;-37
2024/01/19 01:56:23;;;;;;;7.32;1.65;;;;;;;;;;5095805;28;20051;-36
2024/01/19 01:58:48;;;;;;;6.70;1.63;;;;;;;;;;5095803;28;20103;-35
2024/01/19 02:01:13;;;;;;;5.32;1.70;;;;;;;;;;5095616;28;20097;-35
2024/01/19 02:03:39;;;;;;;6.90;1.88;;;;;;;;;;5095887;28;20016;-35
2024/01/19 02:06:04;;;;;;;8.32;1.75;;;;;;;;;;5095489;28;20048;-35
2024/01/19 02:08:29;;;;;;;6.65;1.70;;;;;;;;;;5096114;28;20429;-36
2024/01/19 02:10:55;;;;;;;4.68;1.55;;;;;;;;;;5095849;28;20020;-36
2024/01/19 02:13:20;;;;;;;9.48;1.92;;;;;;;;;;5095324;28;20111;-36
2024/01/19 02:15:45;;;;;;;4.63;1.67;;;;;;;;;;5077257;28;20378;-35
2024/01/19 02:18:10;;;;;;;4.72;1.90;;;;;;;;;;5095542;28;20258;-35
2024/01/19 02:20:35;;;;;;;6.45;1.77;;;;;;;;;;5095470;28;20077;-35
2024/01/19 02:23:02;;;;;;;5.10;1.80;;;;;;;;;;5095767;28;20103;-37
2024/01/19 02:25:27;;;;;;;7.05;1.90;;;;;;;;;;5095754;28;20027;-36
2024/01/19 02:27:53;;;;;;;7.40;1.73;;;;;;;;;;5095139;28;20012;-36
2024/01/19 02:30:18;;;;;;;5.40;1.95;;;;;;;;;;5095157;28;20035;-35
2024/01/19 02:32:43;;;;;;;6.28;2.05;;;;;;;;;;5095304;28;20364;-36
2024/01/19 02:35:08;;;;;;;6.30;2.08;;;;;;;;;;5095583;28;20020;-36
2024/01/19 02:37:34;;;;;;;3.50;2.03;;;;;;;;;;5094965;28;20020;-36
2024/01/19 02:40:00;;;;;;;7.37;2.30;;;;;;;;;;5095088;28;20028;-35
2024/01/19 02:42:25;;;;;;;6.85;2.03;;;;;;;;;;5094860;28;20648;-36
2024/01/19 02:44:50;;;;;;;8.95;1.98;;;;;;;;;;5094814;28;20012;-35
2024/01/19 02:47:15;;;;;;;3.83;1.73;;;;;;;;;;5094758;28;20044;-36
2024/01/19 02:49:41;;;;;;;8.10;2.20;;;;;;;;;;5095349;28;20254;-36
2024/01/19 02:52:06;;;;;;;13.32;2.70;;;;;;;;;;5094804;28;20016;-35
2024/01/19 02:54:31;;;;;;;6.18;2.17;;;;;;;;;;5094731;28;20386;-36
2024/01/19 02:56:56;;;;;;;5.83;2.33;;;;;;;;;;5094695;28;20089;-36
2024/01/19 02:59:21;;;;;;;4.37;2.27;;;;;;;;;;5095135;28;20258;-36
2024/01/19 03:01:47;;;;;;;8.05;2.60;;;;;;;;;;5094617;28;20770;-36
2024/01/19 03:04:12;;;;;;;10.10;3.60;;;;;;;;;;5094492;28;20511;-36
2024/01/19 03:06:37;;;;;;;10.25;2.20;;;;;;;;;;5094476;28;20048;-35
2024/01/19 03:09:03;;;;;;;6.80;2.35;;;;;;;;;;5094302;28;20016;-36
2024/01/19 03:11:28;;;;;;;8.60;2.67;;;;;;;;;;5094569;28;20140;-35
2024/01/19 03:13:53;;;;;;;10.47;2.60;;;;;;;;;;5094366;28;20449;-36
2024/01/19 03:16:19;;;;;;;8.40;2.30;;;;;;;;;;5094570;28;20269;-35
2024/01/19 03:18:44;;;;;;;12.00;2.65;;;;;;;;;;5094508;28;20026;-35
2024/01/19 03:21:11;;;;;;;5.85;2.40;;;;;;;;;;5094054;28;20035;-35
2024/01/19 03:23:36;;;;;;;9.25;2.60;;;;;;;;;;5094720;28;20012;-36
2024/01/19 03:26:01;;;;;;;10.02;2.70;;;;;;;;;;5094075;28;20375;-35
2024/01/19 03:28:26;;;;;;;7.30;2.53;;;;;;;;;;5094335;28;20016;-35
2024/01/19 03:30:52;;;;;;;6.95;2.53;;;;;;;;;;5093533;28;20015;-35
2024/01/19 03:33:17;;;;;;;15.23;2.95;;;;;;;;;;5094103;28;20115;-36
2024/01/19 03:35:42;;;;;;;8.83;2.50;;;;;;;;;;5094484;28;20093;-36
2024/01/19 03:38:07;;;;;;;9.73;2.53;;;;;;;;;;5094403;28;20605;-35
2024/01/19 03:40:33;;;;;;;7.90;2.53;;;;;;;;;;5093810;28;20027;-37
2024/01/19 03:42:58;;;;;;;9.45;2.50;;;;;;;;;;5093833;28;20379;-36
2024/01/19 03:45:23;;;;;;;7.03;2.42;;;;;;;;;;5094048;28;20459;-35
2024/01/19 03:47:48;;;;;;;6.72;2.90;;;;;;;;;;5094080;28;20028;-35
2024/01/19 03:50:14;;;;;;;6.55;2.25;;;;;;;;;;5094024;28;20016;-36
2024/01/19 03:52:39;;;;;;;7.70;2.38;;;;;;;;;;5094023;28;20024;-35
2024/01/19 03:55:05;;;;;;;12.07;2.60;;;;;;;;;;5093630;28;20016;-35
2024/01/19 03:57:30;;;;;;;7.28;2.50;;;;;;;;;;5093607;28;20029;-36
2024/01/19 03:59:55;;;;;;;6.70;2.40;;;;;;;;;;5093478;28;20029;-36
2024/01/19 04:02:20;;;;;;;6.75;2.72;;;;;;;;;;5093872;28;20036;-36
2024/01/19 04:04:46;;;;;;;10.57;2.60;;;;;;;;;;5093554;28;20016;-36
2024/01/19 04:07:12;;;;;;;6.00;2.60;;;;;;;;;;5093402;28;20286;-34
2024/01/19 04:09:39;;;;;;;8.63;2.70;;;;;;;;;;5093662;28;20366;-35
2024/01/19 04:12:16;;;;;;;6.68;2.90;;;;;;;;;;5093244;28;20103;-36
2024/01/19 04:14:42;;;;;;;7.22;2.88;;;;;;;;;;5093647;28;20023;-36
2024/01/19 04:17:08;;;;;;;8.05;3.00;;;;;;;;;;5093326;28;20463;-35
2024/01/19 04:19:33;;;;;;;7.30;2.13;;;;;;;;;;5093235;28;20100;-36
2024/01/19 04:21:59;;;;;;;6.20;2.78;;;;;;;;;;5093242;28;20027;-36
2024/01/19 04:24:24;;;;;;;10.85;2.70;;;;;;;;;;5075275;28;20019;-36
2024/01/19 04:26:49;;;;;;;7.50;2.47;;;;;;;;;;5093241;28;20066;-35
2024/01/19 04:29:15;;;;;;;10.02;2.47;;;;;;;;;;5093837;28;20020;-36
2024/01/19 04:31:40;;;;;;;10.90;2.20;;;;;;;;;;5093870;28;20023;-35
2024/01/19 04:34:05;;;;;;;7.47;3.13;;;;;;;;;;5093871;28;20270;-37
2024/01/19 04:36:30;;;;;;;10.00;2.50;;;;;;;;;;5093529;28;20774;-36
2024/01/19 04:38:55;;;;;;;8.75;1.90;;;;;;;;;;5093177;28;20262;-36
2024/01/19 04:41:20;;;;;;;7.97;2.00;;;;;;;;;;5093135;28;20020;-37
2024/01/19 04:43:46;;;;;;;5.53;1.70;;;;;;;;;;5077951;28;20463;-36
2024/01/19 04:46:11;;;;;;;7.57;1.73;;;;;;;;;;5097210;28;20353;-36
2024/01/19 04:48:36;;;;;;;5.13;1.60;;;;;;;;;;5097117;28;20258;-38
2024/01/19 04:51:01;;;;;;;4.45;1.40;;;;;;;;;;5097364;28;20020;-36
2024/01/19 04:53:26;;;;;;;5.95;1.50;;;;;;;;;;5097056;28;20137;-36
2024/01/19 04:55:51;;;;;;;10.35;1.50;;;;;;;;;;5096977;28;20026;-36
2024/01/19 04:58:17;;;;;;;5.07;2.10;;;;;;;;;;5097188;28;20099;-36
2024/01/19 05:00:42;;;;;;;3.28;1.40;;;;;;;;;;5096775;28;20027;-35
2024/01/19 05:03:07;;;;;;;4.45;1.40;;;;;;;;;;5097156;28;20020;-36
2024/01/19 05:05:32;;;;;;;3.75;1.05;;;;;;;;;;5096567;28;20058;-36
2024/01/19 05:08:00;;;;;;;4.03;1.92;;;;;;;;;;5097302;28;20024;-35
2024/01/19 05:10:25;;;;;;;3.40;1.75;;;;;;;;;;5096979;28;20026;-35
2024/01/19 05:12:50;;;;;;;5.25;1.92;;;;;;;;;;5096547;28;20488;-36
2024/01/19 05:15:15;;;;;;;7.63;1.55;;;;;;;;;;5096648;28;20049;-36
2024/01/19 05:17:40;;;;;;;4.00;1.63;;;;;;;;;;5096577;28;20459;-36
2024/01/19 05:20:06;;;;;;;4.82;1.25;;;;;;;;;;5096444;28;20261;-36
2024/01/19 05:22:31;;;;;;;2.92;1.20;;;;;;;;;;5097468;28;20102;-36
2024/01/19 05:24:56;;;;;;;5.90;1.40;;;;;;;;;;5096490;28;20463;-35
2024/01/19 05:27:21;;;;;;;2.78;1.25;;;;;;;;;;5096386;28;20265;-35
2024/01/19 05:29:46;;;;;;;5.18;1.75;;;;;;;;;;5078169;28;20030;-36
2024/01/19 05:32:12;;;;;;;5.20;1.80;;;;;;;;;;5096896;28;20123;-35
2024/01/19 05:34:37;;;;;;;3.72;1.65;;;;;;;;;;5096217;28;20804;-36
2024/01/19 05:37:02;;;;;;;4.03;1.30;;;;;;;;;;5096416;28;20027;-36
2024/01/19 05:39:27;;;;;;;3.65;1.38;;;;;;;;;;5096191;28;20024;-36
2024/01/19 05:41:53;;;;;;;3.10;1.30;;;;;;;;;;5097092;28;20024;-35
2024/01/19 05:44:18;;;;;;;6.57;1.95;;;;;;;;;;5077907;28;20051;-35
2024/01/19 05:46:43;;;;;;;4.30;1.67;;;;;;;;;;5096028;28;20069;-35
2024/01/19 05:49:08;;;;;;;5.10;1.58;;;;;;;;;;5095944;28;20542;-35
2024/01/19 05:51:33;;;;;;;4.38;1.80;;;;;;;;;;5096095;28;20020;-36
2024/01/19 05:53:58;;;;;;;5.90;1.77;;;;;;;;;;5095762;28;20027;-35
2024/01/19 05:56:24;;;;;;;5.40;1.60;;;;;;;;;;5095757;28;20023;-36
2024/01/19 05:58:49;;;;;;;4.05;1.60;;;;;;;;;;5095797;28;20281;-36
2024/01/19 06:01:14;;;;;;;3.90;1.57;;;;;;;;;;5095910;28;20106;-37
2024/01/19 06:03:40;;;;;;;5.13;1.65;;;;;;;;;;5096209;28;20258;-36
2024/01/19 06:06:05;;;;;;;4.88;1.30;;;;;;;;;;5095456;28;20501;-36
2024/01/19 06:08:30;;;;;;;5.43;1.52;;;;;;;;;;5095603;28;20487;-35
2024/01/19 06:10:56;;;;;;;9.23;1.48;;;;;;;;;;5095474;28;20020;-35
2024/01/19 06:13:21;;;;;;;2.85;1.20;;;;;;;;;;5095670;28;20137;-36
2024/01/19 06:15:47;;;;;;;4.97;1.57;;;;;;;;;;5096009;28;20016;-36
2024/01/19 06:18:12;;;;;;;5.70;1.77;;;;;;;;;;5095890;28;20341;-35
2024/01/19 06:20:43;;;;;;;4.88;1.60;;;;;;;;;;5095295;28;20046;-36
2024/01/19 06:23:09;;;;;;;4.32;1.30;;;;;;;;;;5095282;28;20099;-36
2024/01/19 06:25:35;;;;;;;6.30;1.42;;;;;;;;;;5095239;28;20074;-35
2024/01/19 06:28:00;;;;;;;4.20;1.40;;;;;;;;;;5095185;28;20467;-35
2024/01/19 06:30:25;;;;;;;6.13;1.20;;;;;;;;;;5095402;28;20494;-36
2024/01/19 06:32:50;;;;;;;3.28;1.40;;;;;;;;;;5095660;28;20028;-36
2024/01/19 06:35:15;;;;;;;5.85;1.70;;;;;;;;;;5095320;28;20070;-36
2024/01/19 06:37:41;;;;;;;7.22;1.80;;;;;;;;;;5095012;28;20027;-36
2024/01/19 06:40:10;;;;;;;6.43;1.70;;;;;;;;;;5094892;28;20020;-36
2024/01/19 06:42:36;;;;;;;7.65;1.80;;;;;;;;;;5094868;28;20246;-36
2024/01/19 06:45:01;;;;;;;5.38;1.95;;;;;;;;;;5095006;28;20047;-36
2024/01/19 06:47:26;;;;;;;6.35;1.63;;;;;;;;;;5095343;28;20016;-36
2024/01/19 06:49:52;;;;;;;2.70;1.73;;;;;;;;;;5095300;28;20022;-35
2024/01/19 06:52:17;;;;;;;10.23;2.47;;;;;;;;;;5094911;28;20482;-36
2024/01/19 06:54:42;;;;;;;4.93;1.65;;;;;;;;;;5094842;28;20059;-35
2024/01/19 06:57:08;;;;;;;4.82;1.60;;;;;;;;;;5094869;28;20519;-36
2024/01/19 06:59:33;;;;;;;6.15;2.17;;;;;;;;;;5094828;28;20018;-36
2024/01/19 07:01:58;;;;;;;8.67;2.63;;;;;;;;;;5094924;28;20073;-36
2024/01/19 07:04:24;;;;;;;11.83;2.00;;;;;;;;;;5094476;28;20725;-35
2024/01/19 07:06:49;;;;;;;10.32;1.92;;;;;;;;;;5093391;28;20427;-36
2024/01/19 07:09:15;;;;;;;9.15;1.40;;;;;;;;;;5094612;28;20016;-36
2024/01/19 07:11:41;;;;;;;3.75;1.70;;;;;;;;;;5094423;28;20416;-35
2024/01/19 07:14:06;;;;;;;6.78;1.83;;;;;;;;;;5094433;28;20101;-35
2024/01/19 07:16:31;;;;;;;10.30;1.90;;;;;;;;;;5094393;28;20038;-35
2024/01/19 07:18:56;;;;;;;5.22;1.80;;;;;;;;;;5076024;28;20031;-36
2024/01/19 07:21:22;;;;;;;6.43;1.70;;;;;;;;;;5094048;28;20020;-36
2024/01/19 07:23:47;;;;;;;6.05;1.67;;;;;;;;;;5094314;28;20494;-36
2024/01/19 07:26:17;;;;;;;5.70;1.73;;;;;;;;;;5094270;28;20087;-35
2024/01/19 07:28:42;;;;;;;5.15;1.80;;;;;;;;;;5094573;28;20008;-36
2024/01/19 07:31:07;;;;;;;5.03;2.28;;;;;;;;;;5094275;28;20475;-35
2024/01/19 07:33:32;;;;;;;6.77;2.20;;;;;;;;;;5093923;28;20028;-35
2024/01/19 07:35:57;;;;;;;5.75;1.85;;;;;;;;;;5094146;28;20273;-36
2024/01/19 07:38:23;;;;;;;14.55;2.15;;;;;;;;;;5094378;28;20108;-36
2024/01/19 07:40:48;;;;;;;8.50;1.77;;;;;;;;;;5093753;28;20020;-35
2024/01/19 07:43:13;;;;;;;4.43;1.97;;;;;;;;;;5093715;28;20262;-36
2024/01/19 07:45:38;;;;;;;8.52;2.10;;;;;;;;;;5093964;28;20703;-36
2024/01/19 07:48:03;;;;;;;11.77;2.60;;;;;;;;;;5093929;28;20363;-35
2024/01/19 07:50:29;;;;;;;5.15;1.83;;;;;;;;;;5093666;28;20020;-35
2024/01/19 07:52:54;;;;;;;6.27;1.90;;;;;;;;;;5093831;28;20020;-35
2024/01/19 07:55:20;;;;;;;7.30;2.35;;;;;;;;;;5093399;28;20415;-36
2024/01/19 07:57:45;;;;;;;10.18;2.20;;;;;;;;;;5093840;28;20031;-35
2024/01/19 08:00:10;;;;;;;5.00;2.08;;;;;;;;;;5093642;28;20080;-35
2024/01/19 08:02:36;;;;;;;10.32;2.53;;;;;;;;;;5093845;28;20099;-36
2024/01/19 08:05:01;;;;;;;8.18;2.58;;;;;;;;;;5093939;28;20511;-36
2024/01/19 08:07:26;;;;;;;6.47;2.63;;;;;;;;;;5093311;28;20044;-36
2024/01/19 08:09:51;;;;;;;13.43;2.58;;;;;;;;;;5093234;28;20075;-36
2024/01/19 08:12:17;;;;;;;13.10;3.30;;;;;;;;;;5093379;28;20055;-36
2024/01/19 08:14:42;;;;;;;6.18;2.35;;;;;;;;;;5093596;28;20024;-35
2024/01/19 08:17:08;;;;;;;5.72;2.63;;;;;;;;;;5093456;28;20021;-35
2024/01/19 08:19:33;;;;;;;7.18;2.33;;;;;;;;;;5097882;28;20028;-36
2024/01/19 08:21:58;;;;;;;9.75;2.72;;;;;;;;;;5097446;28;20024;-36
2024/01/19 08:24:23;;;;;;;8.65;2.40;;;;;;;;;;5098173;28;20016;-36
2024/01/19 08:26:48;;;;;;;10.93;3.05;;;;;;;;;;5097403;28;20417;-36
2024/01/19 08:29:14;;;;;;;9.77;2.80;;;;;;;;;;5097490;28;20062;-36
2024/01/19 08:31:43;;;;;;;9.15;2.97;;;;;;;;;;5097580;28;20370;-35
2024/01/19 08:34:08;;;;;;;5.68;2.38;;;;;;;;;;5097290;28;20474;-35
2024/01/19 08:36:39;;;;;;;5.87;2.90;;;;;;;;;;5097608;28;20016;-36
2024/01/19 08:39:04;;;;;;;10.15;2.65;;;;;;;;;;5097291;28;20253;-36
2024/01/19 08:41:30;;;;;;;9.18;3.30;;;;;;;;;;5097438;28;20119;-36
2024/01/19 08:43:55;;;;;;;10.95;3.08;;;;;;;;;;5097841;28;20016;-36
2024/01/19 08:46:20;;;;;;;7.87;3.10;;;;;;;;;;5097047;28;20101;-36
2024/01/19 08:48:47;;;;;;;8.27;2.97;;;;;;;;;;5097452;28;20242;-36
2024/01/19 08:51:20;;;;;;;11.70;3.45;;;;;;;;;;5097369;28;20616;-36
2024/01/19 08:53:45;;;;;;;11.18;3.88;;;;;;;;;;5097162;28;20038;-35
2024/01/19 08:56:10;;;;;;;6.45;3.42;;;;;;;;;;5097180;28;20095;-35
2024/01/19 08:58:36;;;;;;;11.85;3.42;;;;;;;;;;5096944;28;20378;-35
2024/01/19 09:01:03;;;;;;;10.50;3.85;;;;;;;;;;5096753;28;20047;-36
2024/01/19 09:03:28;;;;;;;7.57;3.80;;;;;;;;;;5096785;28;20016;-36
2024/01/19 09:05:53;;;;;;;9.75;3.63;;;;;;;;;;5097041;28;20058;-35
2024/01/19 09:08:19;;;;;;;9.80;4.00;;;;;;;;;;5096711;28;20422;-36
2024/01/19 09:10:44;;;;;;;7.93;4.10;;;;;;;;;;5096695;28;20261;-36
2024/01/19 09:13:09;;;;;;;10.52;3.88;;;;;;;;;;5096618;28;20323;-36
2024/01/19 09:15:35;;;;;;;8.80;4.00;;;;;;;;;;5096535;28;20051;-35
2024/01/19 09:18:00;;;;;;;9.17;3.73;;;;;;;;;;5097112;28;20028;-35
2024/01/19 09:20:26;;;;;;;10.82;4.07;;;;;;;;;;5096960;28;20347;-35
2024/01/19 09:22:51;;;;;;;8.73;3.88;;;;;;;;;;5096689;28;20016;-35
2024/01/19 09:25:16;;;;;;;12.07;3.50;;;;;;;;;;5096441;28;20008;-36
2024/01/19 09:27:41;;;;;;;7.13;3.40;;;;;;;;;;5096658;28;20306;-36
2024/01/19 09:30:07;;;;;;;10.05;3.92;;;;;;;;;;5095740;28;20440;-37
2024/01/19 09:32:32;;;;;;;13.25;4.10;;;;;;;;;;5096835;28;20374;-36
2024/01/19 09:34:58;;;;;;;10.13;4.32;;;;;;;;;;5096457;28;20008;-35
2024/01/19 09:37:23;;;;;;;12.02;3.97;;;;;;;;;;5096402;28;20023;-36
2024/01/19 09:39:48;;;;;;;11.02;3.90;;;;;;;;;;5096040;28;20512;-35
2024/01/19 09:42:16;;;;;;;9.65;3.60;;;;;;;;;;5096609;28;20024;-36
2024/01/19 09:44:48;;;;;;;13.75;4.43;;;;;;;;;;5096370;28;20012;-35
2024/01/19 09:47:15;;;;;;;16.75;4.28;;;;;;;;;;5096074;28;20467;-36
2024/01/19 09:49:43;;;;;;;9.60;3.60;;;;;;;;;;5096185;28;20061;-34
2024/01/19 09:52:11;;;;;;;10.77;3.85;;;;;;;;;;5096062;28;20028;-36
2024/01/19 09:54:37;;;;;;;7.88;3.40;;;;;;;;;;5096077;28;20375;-36
2024/01/19 09:57:02;;;;;;;15.20;4.03;;;;;;;;;;5095791;28;20024;-35
2024/01/19 09:59:30;;;;;;;13.18;3.40;;;;;;;;;;5095997;28;20016;-35
2024/01/19 10:01:55;;;;;;;6.95;3.17;;;;;;;;;;5095912;28;20028;-36
2024/01/19 10:04:21;;;;;;;7.25;3.00;;;;;;;;;;5095784;28;20475;-35
2024/01/19 10:06:46;;;;;;;11.68;3.22;;;;;;;;;;5095486;28;20127;-37
2024/01/19 10:09:12;;;;;;;9.98;3.47;;;;;;;;;;5095427;28;20393;-35
2024/01/19 10:11:37;;;;;;;9.95;3.20;;;;;;;;;;5095740;28;20091;-36
2024/01/19 10:14:03;;;;;;;10.43;3.35;;;;;;;;;;5095736;28;20131;-36
2024/01/19 10:16:28;;;;;;;12.93;3.10;;;;;;;;;;5095424;28;20483;-36
2024/01/19 10:18:54;;;;;;;11.13;3.20;;;;;;;;;;5095690;28;20020;-36
2024/01/19 10:21:28;;;;;;;8.65;2.67;;;;;;;;;;5095260;28;20016;-36
2024/01/19 10:24:06;;;;;;;9.55;3.10;;;;;;;;;;5095310;28;20019;-36
2024/01/19 10:26:31;;;;;;;8.93;2.42;;;;;;;;;;5095218;28;20038;-36
2024/01/19 10:28:57;;;;;;;8.27;2.97;;;;;;;;;;5095474;28;20020;-36
2024/01/19 10:31:22;;;;;;;9.80;2.77;;;;;;;;;;5095084;28;20020;-35
2024/01/19 10:33:51;;;;;;;7.25;2.40;;;;;;;;;;5095568;28;20153;-36
2024/01/19 10:36:16;;;;;;;9.32;2.70;;;;;;;;;;5095631;28;20469;-36
2024/01/19 10:38:41;;;;;;;8.73;2.70;;;;;;;;;;5095589;28;20024;-36
2024/01/19 10:41:16;;;;;;;6.87;2.70;;;;;;;;;;5094735;28;20027;-36
2024/01/19 10:43:42;;;;;;;7.93;2.92;;;;;;;;;;5094887;28;20020;-37
2024/01/19 10:46:26;;;;;;;8.63;2.70;;;;;;;;;;5094906;28;20381;-36
2024/01/19 10:48:51;;;;;;;10.65;2.88;;;;;;;;;;5095168;28;20032;-36
2024/01/19 10:51:18;;;;;;;10.82;3.17;;;;;;;;;;5094888;28;20016;-36
2024/01/19 10:53:43;;;;;;;10.18;2.90;;;;;;;;;;5094820;28;20471;-36
2024/01/19 10:56:08;;;;;;;9.68;2.90;;;;;;;;;;5094885;28;20066;-36
2024/01/19 10:58:33;;;;;;;10.90;3.07;;;;;;;;;;5086287;28;20489;-35
2024/01/19 11:01:28;;;;;;;6.37;2.80;;;;;;;;;;5094515;28;20019;-36
2024/01/19 11:03:54;;;;;;;9.10;2.85;;;;;;;;;;5072907;28;20294;-37
2024/01/19 11:06:19;;;;;;;9.85;3.25;;;;;;;;;;5094311;28;20044;-36
2024/01/19 11:08:45;;;;;;;11.88;3.50;;;;;;;;;;5094513;28;20095;-36
2024/01/19 11:11:10;;;;;;;9.23;2.63;;;;;;;;;;5094480;28;20031;-37
2024/01/19 11:13:40;;;;;;;8.70;3.03;;;;;;;;;;5094429;28;20016;-36
2024/01/19 11:16:10;;;;;;;10.15;3.10;;;;;;;;;;5094553;28;20459;-36
2024/01/19 11:18:35;;;;;;;11.65;3.65;;;;;;;;;;5094226;28;20019;-36
2024/01/19 11:21:00;;;;;;;12.17;3.53;;;;;;;;;;5094532;28;20024;-36
2024/01/19 11:23:26;;;;;;;14.00;3.87;;;;;;;;;;5093868;28;20023;-36
2024/01/19 11:26:14;;;;;;;19.45;4.00;;;;;;;;;;5094036;28;20069;-36
2024/01/19 11:28:50;;;;;;;15.13;3.80;;;;;;;;;;5080570;28;20031;-37
2024/01/19 11:31:19;;;;;;;13.95;3.90;;;;;;;;;;5094585;28;20074;-36
2024/01/19 11:33:45;;;;;;;11.45;3.53;;;;;;;;;;5094245;28;20035;-36
2024/01/19 11:36:11;;;;;;;16.80;3.63;;;;;;;;;;5094226;28;20480;-36
2024/01/19 11:38:36;;;;;;;14.52;3.58;;;;;;;;;;5092235;28;20016;-36
2024/01/19 11:41:01;;;;;;;8.85;3.35;;;;;;;;;;5092097;28;20562;-36
2024/01/19 11:43:46;;;;;;;13.03;3.50;;;;;;;;;;5092144;28;20035;-36
2024/01/19 11:46:31;;;;;;;11.98;3.55;;;;;;;;;;5073013;28;20023;-36
2024/01/19 11:48:57;;;;;;;10.15;3.50;;;;;;;;;;5091829;28;20475;-36
2024/01/19 11:51:32;;;;;;;9.93;3.73;;;;;;;;;;5092090;28;20107;-35
2024/01/19 11:53:58;;;;;;;12.52;3.60;;;;;;;;;;5093161;28;20040;-36
2024/01/19 11:56:24;;;;;;;12.82;3.58;;;;;;;;;;5093793;28;20051;-36
2024/01/19 11:58:49;;;;;;;13.43;3.78;;;;;;;;;;5093870;28;20113;-36
2024/01/19 12:01:15;;;;;;;9.50;3.20;;;;;;;;;;5093506;28;20060;-36
2024/01/19 12:03:41;;;;;;;12.00;3.50;;;;;;;;;;5093814;28;20024;-36
2024/01/19 12:06:06;;;;;;;9.70;3.20;;;;;;;;;;5093518;28;20040;-36
2024/01/19 12:08:32;;;;;;;12.50;3.45;;;;;;;;;;5093724;28;20375;-36
2024/01/19 12:11:02;;;;;;;11.65;3.78;;;;;;;;;;5093443;28;20059;-36
2024/01/19 12:13:27;;;;;;;15.02;3.95;;;;;;;;;;5093741;28;20025;-36
2024/01/19 12:15:52;;;;;;;9.93;3.50;;;;;;;;;;5076333;28;20024;-36
2024/01/19 12:18:17;;;;;;;13.27;3.67;;;;;;;;;;5093431;28;20031;-35
2024/01/19 12:20:45;;;;;;;9.43;3.50;;;;;;;;;;5093261;28;20107;-36
2024/01/19 12:23:12;;;;;;;15.27;3.90;;;;;;;;;;5093324;28;20258;-36
2024/01/19 12:25:38;;;;;;;15.15;3.55;;;;;;;;;;5093630;28;20023;-36
2024/01/19 12:28:03;;;;;;;10.80;3.22;;;;;;;;;;5093683;28;20016;-36
2024/01/19 12:30:33;;;;;;;11.77;3.63;;;;;;;;;;5093287;28;20559;-35
2024/01/19 12:32:58;;;;;;;11.98;3.45;;;;;;;;;;5093303;28;20024;-39
2024/01/19 12:35:23;;;;;;;9.75;2.70;;;;;;;;;;5091918;28;20016;-36
2024/01/19 12:37:49;;;;;;;11.60;2.83;;;;;;;;;;5091880;28;20463;-36
2024/01/19 12:40:18;;;;;;;12.30;2.70;;;;;;;;;;5090298;28;20107;-36
2024/01/19 12:42:44;;;;;;;10.00;2.67;;;;;;;;;;5090576;28;20099;-37
2024/01/19 12:45:12;;;;;;;8.65;2.40;;;;;;;;;;5090575;28;20420;-36
2024/01/19 12:47:41;;;;;;;11.57;3.10;;;;;;;;;;5090485;28;20024;-37
2024/01/19 12:50:06;;;;;;;9.25;2.50;;;;;;;;;;5091316;28;20046;-37
2024/01/19 12:52:31;;;;;;;9.05;2.53;;;;;;;;;;5091990;28;20059;-36
2024/01/19 12:54:56;;;;;;;5.68;2.20;;;;;;;;;;5092901;28;20016;-36
2024/01/19 12:57:22;;;;;;;9.15;2.83;;;;;;;;;;5092848;28;20475;-36
2024/01/19 13:00:06;;;;;;;12.32;2.80;;;;;;;;;;5093056;28;20020;-35
2024/01/19 13:02:31;;;;;;;6.65;2.47;;;;;;;;;;5092935;28;20463;-36
2024/01/19 13:04:56;;;;;;;7.80;2.40;;;;;;;;;;5096040;28;20016;-36
2024/01/19 13:07:22;;;;;;;8.70;2.50;;;;;;;;;;5096705;28;20044;-36
2024/01/19 13:09:59;;;;;;;10.30;2.65;;;;;;;;;;5097042;28;20254;-35
2024/01/19 13:12:24;;;;;;;8.77;2.78;;;;;;;;;;5096917;28;20099;-36
2024/01/19 13:14:49;;;;;;;9.23;2.70;;;;;;;;;;5096757;28;20155;-36
2024/01/19 13:17:22;;;;;;;7.30;2.90;;;;;;;;;;5097195;28;20047;-36
2024/01/19 13:19:47;;;;;;;;;;;;;;;;;;5097534;28;20255;-35
2024/01/19 13:22:13;;;;;;;8.30;3.08;;;;;;;;;;5096755;28;20279;-36
2024/01/19 13:24:38;;;;;;;10.02;2.60;;;;;;;;;;5096425;28;20020;-36
2024/01/19 13:27:03;;;;;;;9.87;3.40;;;;;;;;;;5096513;28;20027;-36
2024/01/19 13:29:29;;;;;;;11.23;3.13;;;;;;;;;;5096389;28;20262;-36
2024/01/19 13:31:55;;;;;;;12.70;3.22;;;;;;;;;;5096869;28;20039;-36
2024/01/19 13:34:26;;;;;;;7.93;2.95;;;;;;;;;;5096338;28;20538;-36
2024/01/19 13:36:51;;;;;;;8.45;2.78;;;;;;;;;;5096318;28;20066;-36
2024/01/19 13:39:16;;;;;;;10.77;3.05;;;;;;;;;;5096564;28;20455;-36
2024/01/19 13:41:42;;;;;;;13.13;2.80;;;;;;;;;;5096357;28;20046;-36
2024/01/19 13:44:07;;;;;;;10.43;2.95;;;;;;;;;;5096134;28;20265;-36
2024/01/19 13:46:32;;;;;;;9.55;3.00;;;;;;;;;;5096071;28;20092;-36
2024/01/19 13:48:58;;;;;;;7.33;2.90;;;;;;;;;;5096332;28;20103;-36
2024/01/19 13:51:23;;;;;;;9.57;3.15;;;;;;;;;;5095905;28;20250;-36
2024/01/19 13:53:48;;;;;;;5.72;3.13;;;;;;;;;;5096491;28;20045;-36
2024/01/19 13:56:13;;;;;;;9.02;3.20;;;;;;;;;;5096515;28;20153;-36
2024/01/19 13:58:39;;;;;;;7.87;3.10;;;;;;;;;;5096101;28;20404;-36
2024/01/19 14:01:05;;;;;;;8.90;3.10;;;;;;;;;;5095997;28;20282;-36
2024/01/19 14:03:31;;;;;;;7.38;2.97;;;;;;;;;;5095979;28;20108;-35
2024/01/19 14:05:56;;;;;;;9.65;3.53;;;;;;;;;;5095558;28;20090;-35
2024/01/19 14:08:21;;;;;;;7.57;3.10;;;;;;;;;;5095776;28;20534;-36
2024/01/19 14:10:48;;;;;;;6.43;2.90;;;;;;;;;;5095998;28;20016;-36
2024/01/19 14:13:14;;;;;;;10.57;3.38;;;;;;;;;;5095535;28;20095;-36
2024/01/19 14:15:43;;;;;;;12.23;3.65;;;;;;;;;;5095314;28;20479;-35
2024/01/19 14:18:08;;;;;;;11.75;3.10;;;;;;;;;;5095443;28;20024;-36
2024/01/19 14:20:34;;;;;;;9.18;2.88;;;;;;;;;;5095954;28;20028;-35
2024/01/19 14:22:59;;;;;;;12.45;3.55;;;;;;;;;;5095485;28;20509;-36
2024/01/19 14:25:24;;;;;;;12.63;3.33;;;;;;;;;;5095975;28;20047;-36
2024/01/19 14:27:49;;;;;;;9.40;3.40;;;;;;;;;;5095906;28;20685;-36
2024/01/19 14:30:14;;;;;;;10.05;3.08;;;;;;;;;;5095290;28;20296;-36
2024/01/19 14:32:40;;;;;;;8.55;3.00;;;;;;;;;;5095563;28;20020;-36